Alamo, Nevada
Current Conditions -  °F | °C
As of 11:58 PM on Thursday 23 Oct 2014 (Local Time) from KINS Reporting Station
Clear Clear  
Wind Chill: 58°   Ceiling: Unl
Heat Index: 58°   Visibility: 10mi
Dew Point: 30°   Wind: 3mph
Humidity: 35%   Direction: 280°W
Pressure: 30.09"   Gusts: NA
Location:  37.36°N, 115.16°W
Report Text: KINS 240658Z AUTO 28003KT 10SM CLR 14/M01 A3009 RMK AO2 SLP158 T01431009
Loading
Personal Weather Stations






























Interactive Weather Map New forecast layout! Learn more

10-Day Weather Forecast

Advertisements
Track Severe Weather on mobile